Aeroporto :
LOGIN :

Iscrizione | Disclaimer

   EN    FR    IT 

 










Sommario :    VFR   VFR Marginale   IFR   IFR Intensivo   IFR Molto Intensivo
Visibilità : 
Base nubi : 
>= 8 km
>= 3000ft
5 / 8 km
1000 / 3000 ft
1500m / 5 km
500 / 1000 ft
800 / 1500m
200 / 500 ft
< 800m
< 200 ft
Simboli :   Temporali  Nebbia  Neve Forte  Precipitazioni Forti  Vento > 20 kt
SIGMETs :   Varie  Temporali  Ghiacco  Turbolenza  Onda orograficha  Ceneri Vulcaniche






- Altitudine del aeroporto : 357 ft
- Codice IATA : TUF


LFOT - Tours

ULTIMO METAR :
  • 200130Z AUTO 03007KT 340V060 CAVOK 09/06 Q1022 NOSIG

METARs OBSOLETI :
  • 200100Z AUTO 02006KT 9999 BKN048 OVC072 09/06 Q1021 NOSIG
  • 200030Z AUTO 02006KT 350V050 9999 BKN046 BKN064 OVC080 10/06 Q1021 NOSIG
  • 200000Z AUTO 01006KT 340V050 9999 FEW012/// SCT026/// BKN038/// //////TCU 10/08 Q1021 BECMG SCT030 BKN040
  • 192330Z AUTO 32005KT 300V010 9999 FEW021 SCT032 BKN046 10/08 Q1021 NOSIG
  • 192300Z AUTO 32006KT 9999 FEW020 SCT030 10/08 Q1021 NOSIG
  • 192230Z AUTO 31005KT 280V350 9999 FEW029 BKN066 BKN076 10/08 Q1021 NOSIG
  • 192200Z AUTO 31007KT 280V340 9999 FEW027 BKN045 BKN076 11/08 Q1021 NOSIG
  • 192130Z AUTO 31006KT 280V340 9999 SCT027 BKN032 BKN076 11/08 Q1021 NOSIG
  • 192100Z AUTO 30007KT 270V340 9999 FEW023 BKN038 BKN047 11/08 Q1020 NOSIG

TAF TAF LFOT
Valido dal 20 a 00 ore il 21 a 00 ore UTC


192300Z 2000/2024 31005KT 9999 BKN030
PROB40
TEMPO 2000/2001 31012KT -SHRA FEW020TCU
BECMG 2000/2002 02008KT



MetMap, La meteo Aeronautica in un colpo d'occhio ! - Copyright ORBIFLY Dicembre 2007 - Disclaimer

ORBIFLY MET'MAP TEAM :

Programmazione e sviluppo : Alexandra Zaïnal
Concezione : Baudouin d'Aumeries
Supporto tecnico e logistico : Manuel Goepfert
Aiuto : Marc-Olivier Méhu
Aiuto per la traduzione : Arnaldo La Scala




FONTI E CREDITI :

   NOAA